• Join FlightAware (Why Join?)
  • Login
  • US Flag 
10:59PM EDT


 

Airport Tracker/Info


-or-


 

Live Flight TrackerFlight Track Log ✈ CPT7773 ✈ 15-Jan-2014 ✈ KCOD - KCPR

Flight Track Log - Related Links

Times and Time Zones

All times are in EST time to prevent confusion due to time zone crossing. See the CPT7773 flight status page for this flight to view local times or setup timezone preferences in your user account.

Time Position Orientation Groundspeed Altitude Reporting Facility
EST Latitude Longitude Course Direction KTS MPH feet Rate Location/Type
08:08PM 44.4931 -109.0092 107° East 133 153 7,000  Level Salt Lake Center
08:09PM 44.4806 -108.9506 107° East 157 181 8,000 960 Climbing Salt Lake Center
08:10PM 44.4631 -108.8867 111° Southeast 165 190 9,000 900 Climbing Salt Lake Center
08:11PM 44.4442 -108.8247 113° Southeast 170 196 9,900 900 Climbing Salt Lake Center
08:12PM 44.4208 -108.7525 114° Southeast 171 197 10,900 480 Climbing Salt Lake Center
08:13PM 44.4017 -108.6944 115° Southeast 168 193 11,000  Climbing Salt Lake Center
08:14PM 44.3817 -108.6258 112° Southeast 176 203 11,000  Level Salt Lake Center
08:15PM 44.3622 -108.5597 112° Southeast 182 209 11,000  Level Salt Lake Center
08:16PM 44.3242 -108.5039 134° Southeast 191 220 11,000  Level Salt Lake Center
08:17PM 44.2864 -108.4467 133° Southeast 197 227 11,000  Level Salt Lake Center
08:18PM 44.2492 -108.3906 133° Southeast 199 229 11,000  Level Salt Lake Center
08:19PM 44.2147 -108.3361 131° Southeast 195 224 11,000  Level Salt Lake Center
08:20PM 44.1733 -108.2706 131° Southeast 191 220 11,000  Level Salt Lake Center
08:21PM 44.1369 -108.2172 134° Southeast 190 219 11,000  Level Salt Lake Center
08:22PM 44.1031 -108.1639 131° Southeast 188 216 11,100  Climbing Salt Lake Center
08:24PM 44.0669 -108.1089 132° Southeast 189 217 11,000 -60 Descending Salt Lake Center
08:25PM 44.0311 -108.0550 133° Southeast 191 220 11,000  Level Salt Lake Center
08:26PM 43.9967 -108.0019 132° Southeast 189 217 11,000  Level Salt Lake Center
08:27PM 43.9594 -107.9486 134° Southeast 190 219 11,000  Level Salt Lake Center
08:28PM 43.9289 -107.8903 126° Southeast 189 217 11,000  Level Salt Lake Center
08:29PM 43.8922 -107.8161 124° Southeast 191 220 11,100  Climbing Salt Lake Center
08:30PM 43.8608 -107.7556 126° Southeast 193 222 11,000 -60 Descending Salt Lake Center
08:31PM 43.8308 -107.6953 125° Southeast 192 221 11,000  Level Salt Lake Center
08:32PM 43.7997 -107.6367 126° Southeast 192 221 11,000  Level Salt Lake Center
08:33PM 43.7700 -107.5800 126° Southeast 188 216 11,000  Level Salt Lake Center
08:34PM 43.7408 -107.5222 125° Southeast 185 213 11,000  Level Salt Lake Center
08:35PM 43.7114 -107.4639 125° Southeast 185 213 11,000  Level Salt Lake Center
08:36PM 43.6794 -107.4019 125° Southeast 190 219 11,000  Level Salt Lake Center
08:37PM 43.6417 -107.3294 126° Southeast 193 222 11,000  Level Salt Lake Center
08:38PM 43.6100 -107.2700 126° Southeast 194 223 11,100  Climbing Salt Lake Center
08:39PM 43.5789 -107.2081 125° Southeast 195 224 11,100  Level Salt Lake Center
08:40PM 43.5472 -107.1461 125° Southeast 197 227 11,100  Level Salt Lake Center
08:41PM 43.5156 -107.0842 125° Southeast 197 227 11,100  Level Salt Lake Center
08:42PM 43.4833 -107.0233 126° Southeast 198 228 11,100  Level Salt Lake Center
08:43PM 43.4494 -106.9617 127° Southeast 202 232 11,100  Level Salt Lake Center
08:44PM 43.4128 -106.8928 126° Southeast 202 232 11,100  Level Salt Lake Center
08:45PM 43.3789 -106.8267 125° Southeast 215 247 11,200 -120 Climbing Salt Lake Center
08:46PM 43.3353 -106.7481 127° Southeast 230 265 10,900 -420 Descending Salt Lake Center
08:47PM 43.2911 -106.7006 142° Southeast 215 247 10,400 -420 Descending Salt Lake Center
08:48PM 43.2233 -106.6669 160° South 226 260 10,100 -180 Descending Salt Lake Center
08:49PM 43.1714 -106.6322 154° Southeast 223 257 10,100 -540 Level Salt Lake Center
08:50PM 43.1183 -106.5961 154° Southeast 207 238 9,000 -1,140 Descending Denver Center
08:51PM 43.0775 -106.5625 149° Southeast 190 219 7,800 -1,080 Descending Denver Center
08:52PM 43.0269 -106.5233 150° Southeast 186 214 6,800 -540 Descending Denver Center
08:53PM 42.9844 -106.4919 152° Southeast 185 213 6,800 -120 Level Denver Center
08:54PM 42.9467 -106.4600 148° Southeast 179 206 6,600 -240 Descending Denver Center
08:55PM 42.9064 -106.4286 150° Southeast 173 199 6,400 -240 Descending Denver Center